<?xml version="1.0" encoding="UTF-8" standalone="no" ?>
<gpx xmlns="http://www.topografix.com/GPX/1/1" xmlns:xsi="http://www.w3.org/2001/XMLSchema-instance" xsi:schemaLocation="http://www.topografix.com/GPX/1/1 http://www.topografix.com/GPX/1/1/gpx.xsd" version="1.1" creator="VisuGPX - https://www.visugpx.com">
  <metadata>
    <name>Parcours VTT mauzé</name>
    <desc><![CDATA[Parcours VTT à mauzé]]></desc>
  </metadata>
  <trk>
    <name><![CDATA[vircuit vtt mauzé]]></name>
    <trkseg>
      <trkpt lat="46.95781" lon="-0.2922">
        <ele>92</ele>
        <time>2012-05-19T14:33:32Z</time>
      </trkpt>
      <trkpt lat="46.95776" lon="-0.29221">
        <ele>98</ele>
        <time>2012-05-19T14:33:40Z</time>
      </trkpt>
      <trkpt lat="46.95764" lon="-0.29236">
        <ele>102</ele>
        <time>2012-05-19T14:33:44Z</time>
      </trkpt>
      <trkpt lat="46.95755" lon="-0.29249">
        <ele>105</ele>
        <time>2012-05-19T14:33:48Z</time>
      </trkpt>
      <trkpt lat="46.95744" lon="-0.29252">
        <ele>102</ele>
        <time>2012-05-19T14:33:52Z</time>
      </trkpt>
      <trkpt lat="46.95736" lon="-0.29264">
        <ele>105</ele>
        <time>2012-05-19T14:33:56Z</time>
      </trkpt>
      <trkpt lat="46.95725" lon="-0.29274">
        <ele>104</ele>
        <time>2012-05-19T14:34:00Z</time>
      </trkpt>
      <trkpt lat="46.9571" lon="-0.29282">
        <ele>106</ele>
        <time>2012-05-19T14:34:04Z</time>
      </trkpt>
      <trkpt lat="46.95695" lon="-0.29291">
        <ele>105</ele>
        <time>2012-05-19T14:34:08Z</time>
      </trkpt>
      <trkpt lat="46.9568" lon="-0.29301">
        <ele>105</ele>
        <time>2012-05-19T14:34:12Z</time>
      </trkpt>
      <trkpt lat="46.95665" lon="-0.29312">
        <ele>105</ele>
        <time>2012-05-19T14:34:16Z</time>
      </trkpt>
      <trkpt lat="46.95652" lon="-0.29329">
        <ele>105</ele>
        <time>2012-05-19T14:34:20Z</time>
      </trkpt>
      <trkpt lat="46.95636" lon="-0.29344">
        <ele>104</ele>
        <time>2012-05-19T14:34:24Z</time>
      </trkpt>
      <trkpt lat="46.95624" lon="-0.29364">
        <ele>104</ele>
        <time>2012-05-19T14:34:28Z</time>
      </trkpt>
      <trkpt lat="46.95614" lon="-0.29386">
        <ele>107</ele>
        <time>2012-05-19T14:34:32Z</time>
      </trkpt>
      <trkpt lat="46.95606" lon="-0.29404">
        <ele>104</ele>
        <time>2012-05-19T14:34:36Z</time>
      </trkpt>
      <trkpt lat="46.956" lon="-0.2942">
        <ele>103</ele>
        <time>2012-05-19T14:34:40Z</time>
      </trkpt>
      <trkpt lat="46.95586" lon="-0.29425">
        <ele>101</ele>
        <time>2012-05-19T14:34:44Z</time>
      </trkpt>
      <trkpt lat="46.95576" lon="-0.2944">
        <ele>103</ele>
        <time>2012-05-19T14:34:48Z</time>
      </trkpt>
      <trkpt lat="46.95569" lon="-0.2946">
        <ele>100</ele>
        <time>2012-05-19T14:34:52Z</time>
      </trkpt>
      <trkpt lat="46.95552" lon="-0.29464">
        <ele>96</ele>
        <time>2012-05-19T14:34:56Z</time>
      </trkpt>
      <trkpt lat="46.95552" lon="-0.29449">
        <ele>95</ele>
        <time>2012-05-19T14:35:00Z</time>
      </trkpt>
      <trkpt lat="46.95543" lon="-0.29442">
        <ele>96</ele>
        <time>2012-05-19T14:35:04Z</time>
      </trkpt>
      <trkpt lat="46.95532" lon="-0.2945">
        <ele>99</ele>
        <time>2012-05-19T14:35:08Z</time>
      </trkpt>
      <trkpt lat="46.95521" lon="-0.29449">
        <ele>97</ele>
        <time>2012-05-19T14:35:12Z</time>
      </trkpt>
      <trkpt lat="46.95513" lon="-0.29455">
        <ele>101</ele>
        <time>2012-05-19T14:35:16Z</time>
      </trkpt>
      <trkpt lat="46.95505" lon="-0.2946">
        <ele>102</ele>
        <time>2012-05-19T14:35:20Z</time>
      </trkpt>
      <trkpt lat="46.95497" lon="-0.29469">
        <ele>103</ele>
        <time>2012-05-19T14:35:24Z</time>
      </trkpt>
      <trkpt lat="46.95484" lon="-0.29475">
        <ele>102</ele>
        <time>2012-05-19T14:35:28Z</time>
      </trkpt>
      <trkpt lat="46.95472" lon="-0.29484">
        <ele>102</ele>
        <time>2012-05-19T14:35:32Z</time>
      </trkpt>
      <trkpt lat="46.95454" lon="-0.29492">
        <ele>98</ele>
        <time>2012-05-19T14:35:36Z</time>
      </trkpt>
      <trkpt lat="46.95439" lon="-0.2951">
        <ele>101</ele>
        <time>2012-05-19T14:35:40Z</time>
      </trkpt>
      <trkpt lat="46.95427" lon="-0.29504">
        <ele>99</ele>
        <time>2012-05-19T14:35:44Z</time>
      </trkpt>
      <trkpt lat="46.95415" lon="-0.29501">
        <ele>101</ele>
        <time>2012-05-19T14:35:48Z</time>
      </trkpt>
      <trkpt lat="46.95412" lon="-0.29506">
        <ele>106</ele>
        <time>2012-05-19T14:35:52Z</time>
      </trkpt>
      <trkpt lat="46.95406" lon="-0.29518">
        <ele>107</ele>
        <time>2012-05-19T14:35:56Z</time>
      </trkpt>
      <trkpt lat="46.95402" lon="-0.29531">
        <ele>105</ele>
        <time>2012-05-19T14:36:00Z</time>
      </trkpt>
      <trkpt lat="46.95409" lon="-0.29542">
        <ele>107</ele>
        <time>2012-05-19T14:36:04Z</time>
      </trkpt>
      <trkpt lat="46.95419" lon="-0.29542">
        <ele>101</ele>
        <time>2012-05-19T14:36:08Z</time>
      </trkpt>
      <trkpt lat="46.95433" lon="-0.29532">
        <ele>101</ele>
        <time>2012-05-19T14:36:12Z</time>
      </trkpt>
      <trkpt lat="46.95445" lon="-0.29538">
        <ele>110</ele>
        <time>2012-05-19T14:36:16Z</time>
      </trkpt>
      <trkpt lat="46.95453" lon="-0.29542">
        <ele>105</ele>
        <time>2012-05-19T14:36:20Z</time>
      </trkpt>
      <trkpt lat="46.95458" lon="-0.29535">
        <ele>105</ele>
        <time>2012-05-19T14:36:24Z</time>
      </trkpt>
      <trkpt lat="46.95466" lon="-0.29529">
        <ele>103</ele>
        <time>2012-05-19T14:36:28Z</time>
      </trkpt>
      <trkpt lat="46.95466" lon="-0.29517">
        <ele>103</ele>
        <time>2012-05-19T14:36:32Z</time>
      </trkpt>
      <trkpt lat="46.95462" lon="-0.29501">
        <ele>106</ele>
        <time>2012-05-19T14:36:36Z</time>
      </trkpt>
      <trkpt lat="46.95473" lon="-0.295">
        <ele>104</ele>
        <time>2012-05-19T14:36:40Z</time>
      </trkpt>
      <trkpt lat="46.95489" lon="-0.29496">
        <ele>105</ele>
        <time>2012-05-19T14:36:44Z</time>
      </trkpt>
      <trkpt lat="46.95496" lon="-0.29479">
        <ele>103</ele>
        <time>2012-05-19T14:36:48Z</time>
      </trkpt>
      <trkpt lat="46.95512" lon="-0.29475">
        <ele>108</ele>
        <time>2012-05-19T14:36:52Z</time>
      </trkpt>
      <trkpt lat="46.95517" lon="-0.29493">
        <ele>106</ele>
        <time>2012-05-19T14:36:56Z</time>
      </trkpt>
      <trkpt lat="46.95511" lon="-0.29516">
        <ele>99</ele>
        <time>2012-05-19T14:37:00Z</time>
      </trkpt>
      <trkpt lat="46.95495" lon="-0.29539">
        <ele>99</ele>
        <time>2012-05-19T14:37:04Z</time>
      </trkpt>
      <trkpt lat="46.95479" lon="-0.29558">
        <ele>98</ele>
        <time>2012-05-19T14:37:08Z</time>
      </trkpt>
      <trkpt lat="46.95467" lon="-0.29578">
        <ele>97</ele>
        <time>2012-05-19T14:37:12Z</time>
      </trkpt>
      <trkpt lat="46.95456" lon="-0.29598">
        <ele>101</ele>
        <time>2012-05-19T14:37:16Z</time>
      </trkpt>
      <trkpt lat="46.95444" lon="-0.29617">
        <ele>98</ele>
        <time>2012-05-19T14:37:20Z</time>
      </trkpt>
      <trkpt lat="46.95431" lon="-0.29635">
        <ele>100</ele>
        <time>2012-05-19T14:37:24Z</time>
      </trkpt>
      <trkpt lat="46.95416" lon="-0.29644">
        <ele>100</ele>
        <time>2012-05-19T14:37:28Z</time>
      </trkpt>
      <trkpt lat="46.95403" lon="-0.29655">
        <ele>100</ele>
        <time>2012-05-19T14:37:32Z</time>
      </trkpt>
      <trkpt lat="46.95388" lon="-0.29666">
        <ele>97</ele>
        <time>2012-05-19T14:37:36Z</time>
      </trkpt>
      <trkpt lat="46.9537" lon="-0.29669">
        <ele>100</ele>
        <time>2012-05-19T14:37:40Z</time>
      </trkpt>
      <trkpt lat="46.95364" lon="-0.29655">
        <ele>98</ele>
        <time>2012-05-19T14:37:44Z</time>
      </trkpt>
      <trkpt lat="46.95356" lon="-0.29653">
        <ele>100</ele>
        <time>2012-05-19T14:37:48Z</time>
      </trkpt>
      <trkpt lat="46.95351" lon="-0.29658">
        <ele>100</ele>
        <time>2012-05-19T14:37:52Z</time>
      </trkpt>
      <trkpt lat="46.95343" lon="-0.29657">
        <ele>101</ele>
        <time>2012-05-19T14:37:56Z</time>
      </trkpt>
      <trkpt lat="46.9534" lon="-0.29653">
        <ele>99</ele>
        <time>2012-05-19T14:38:00Z</time>
      </trkpt>
      <trkpt lat="46.95334" lon="-0.29648">
        <ele>102</ele>
        <time>2012-05-19T14:38:04Z</time>
      </trkpt>
      <trkpt lat="46.95327" lon="-0.2965">
        <ele>102</ele>
        <time>2012-05-19T14:38:08Z</time>
      </trkpt>
      <trkpt lat="46.95319" lon="-0.29649">
        <ele>101</ele>
        <time>2012-05-19T14:38:12Z</time>
      </trkpt>
      <trkpt lat="46.95313" lon="-0.29638">
        <ele>102</ele>
        <time>2012-05-19T14:38:16Z</time>
      </trkpt>
      <trkpt lat="46.9532" lon="-0.29629">
        <ele>98</ele>
        <time>2012-05-19T14:38:20Z</time>
      </trkpt>
      <trkpt lat="46.95329" lon="-0.29611">
        <ele>100</ele>
        <time>2012-05-19T14:38:24Z</time>
      </trkpt>
      <trkpt lat="46.95321" lon="-0.29602">
        <ele>100</ele>
        <time>2012-05-19T14:38:28Z</time>
      </trkpt>
      <trkpt lat="46.95314" lon="-0.29604">
        <ele>101</ele>
        <time>2012-05-19T14:38:32Z</time>
      </trkpt>
      <trkpt lat="46.95314" lon="-0.29596">
        <ele>98</ele>
        <time>2012-05-19T14:38:36Z</time>
      </trkpt>
      <trkpt lat="46.95325" lon="-0.29589">
        <ele>99</ele>
        <time>2012-05-19T14:38:40Z</time>
      </trkpt>
      <trkpt lat="46.95327" lon="-0.29573">
        <ele>98</ele>
        <time>2012-05-19T14:38:44Z</time>
      </trkpt>
      <trkpt lat="46.95322" lon="-0.29562">
        <ele>104</ele>
        <time>2012-05-19T14:38:48Z</time>
      </trkpt>
      <trkpt lat="46.9533" lon="-0.29546">
        <ele>106</ele>
        <time>2012-05-19T14:38:52Z</time>
      </trkpt>
      <trkpt lat="46.95328" lon="-0.29531">
        <ele>104</ele>
        <time>2012-05-19T14:38:56Z</time>
      </trkpt>
      <trkpt lat="46.95335" lon="-0.29513">
        <ele>100</ele>
        <time>2012-05-19T14:39:00Z</time>
      </trkpt>
      <trkpt lat="46.95346" lon="-0.29505">
        <ele>95</ele>
        <time>2012-05-19T14:39:04Z</time>
      </trkpt>
      <trkpt lat="46.95357" lon="-0.29497">
        <ele>96</ele>
        <time>2012-05-19T14:39:08Z</time>
      </trkpt>
      <trkpt lat="46.95369" lon="-0.29493">
        <ele>97</ele>
        <time>2012-05-19T14:39:12Z</time>
      </trkpt>
      <trkpt lat="46.95379" lon="-0.2948">
        <ele>95</ele>
        <time>2012-05-19T14:39:16Z</time>
      </trkpt>
      <trkpt lat="46.95387" lon="-0.2947">
        <ele>96</ele>
        <time>2012-05-19T14:39:20Z</time>
      </trkpt>
      <trkpt lat="46.95396" lon="-0.29467">
        <ele>98</ele>
        <time>2012-05-19T14:39:24Z</time>
      </trkpt>
      <trkpt lat="46.95396" lon="-0.29465">
        <ele>99</ele>
        <time>2012-05-19T14:39:28Z</time>
      </trkpt>
      <trkpt lat="46.95393" lon="-0.29463">
        <ele>96</ele>
        <time>2012-05-19T14:39:32Z</time>
      </trkpt>
      <trkpt lat="46.9539" lon="-0.29463">
        <ele>97</ele>
        <time>2012-05-19T14:39:36Z</time>
      </trkpt>
      <trkpt lat="46.95397" lon="-0.29458">
        <ele>98</ele>
        <time>2012-05-19T14:39:40Z</time>
      </trkpt>
      <trkpt lat="46.95408" lon="-0.29453">
        <ele>104</ele>
        <time>2012-05-19T14:39:44Z</time>
      </trkpt>
      <trkpt lat="46.95414" lon="-0.29461">
        <ele>100</ele>
        <time>2012-05-19T14:39:48Z</time>
      </trkpt>
      <trkpt lat="46.95426" lon="-0.29464">
        <ele>97</ele>
        <time>2012-05-19T14:39:52Z</time>
      </trkpt>
      <trkpt lat="46.95434" lon="-0.29457">
        <ele>97</ele>
        <time>2012-05-19T14:39:56Z</time>
      </trkpt>
      <trkpt lat="46.95441" lon="-0.29453">
        <ele>99</ele>
        <time>2012-05-19T14:40:00Z</time>
      </trkpt>
      <trkpt lat="46.95451" lon="-0.29451">
        <ele>96</ele>
        <time>2012-05-19T14:40:04Z</time>
      </trkpt>
      <trkpt lat="46.95462" lon="-0.29447">
        <ele>98</ele>
        <time>2012-05-19T14:40:08Z</time>
      </trkpt>
      <trkpt lat="46.95478" lon="-0.29441">
        <ele>102</ele>
        <time>2012-05-19T14:40:12Z</time>
      </trkpt>
      <trkpt lat="46.95494" lon="-0.29433">
        <ele>103</ele>
        <time>2012-05-19T14:40:16Z</time>
      </trkpt>
      <trkpt lat="46.95511" lon="-0.29426">
        <ele>100</ele>
        <time>2012-05-19T14:40:20Z</time>
      </trkpt>
      <trkpt lat="46.95532" lon="-0.29416">
        <ele>96</ele>
        <time>2012-05-19T14:40:24Z</time>
      </trkpt>
      <trkpt lat="46.95543" lon="-0.29406">
        <ele>94</ele>
        <time>2012-05-19T14:40:28Z</time>
      </trkpt>
      <trkpt lat="46.95555" lon="-0.29394">
        <ele>97</ele>
        <time>2012-05-19T14:40:32Z</time>
      </trkpt>
      <trkpt lat="46.95564" lon="-0.29393">
        <ele>98</ele>
        <time>2012-05-19T14:40:36Z</time>
      </trkpt>
      <trkpt lat="46.95571" lon="-0.29392">
        <ele>96</ele>
        <time>2012-05-19T14:40:40Z</time>
      </trkpt>
      <trkpt lat="46.95579" lon="-0.29379">
        <ele>96</ele>
        <time>2012-05-19T14:40:44Z</time>
      </trkpt>
      <trkpt lat="46.95587" lon="-0.29352">
        <ele>96</ele>
        <time>2012-05-19T14:40:48Z</time>
      </trkpt>
      <trkpt lat="46.956" lon="-0.29331">
        <ele>96</ele>
        <time>2012-05-19T14:40:52Z</time>
      </trkpt>
      <trkpt lat="46.95617" lon="-0.29313">
        <ele>96</ele>
        <time>2012-05-19T14:40:56Z</time>
      </trkpt>
      <trkpt lat="46.95637" lon="-0.29304">
        <ele>98</ele>
        <time>2012-05-19T14:41:00Z</time>
      </trkpt>
      <trkpt lat="46.95655" lon="-0.29293">
        <ele>98</ele>
        <time>2012-05-19T14:41:04Z</time>
      </trkpt>
      <trkpt lat="46.9567" lon="-0.29282">
        <ele>98</ele>
        <time>2012-05-19T14:41:08Z</time>
      </trkpt>
      <trkpt lat="46.95678" lon="-0.29267">
        <ele>99</ele>
        <time>2012-05-19T14:41:12Z</time>
      </trkpt>
      <trkpt lat="46.95691" lon="-0.29254">
        <ele>101</ele>
        <time>2012-05-19T14:41:16Z</time>
      </trkpt>
      <trkpt lat="46.95704" lon="-0.29242">
        <ele>99</ele>
        <time>2012-05-19T14:41:20Z</time>
      </trkpt>
      <trkpt lat="46.95718" lon="-0.29238">
        <ele>101</ele>
        <time>2012-05-19T14:41:24Z</time>
      </trkpt>
      <trkpt lat="46.95733" lon="-0.29235">
        <ele>101</ele>
        <time>2012-05-19T14:41:28Z</time>
      </trkpt>
      <trkpt lat="46.95748" lon="-0.2923">
        <ele>105</ele>
        <time>2012-05-19T14:41:32Z</time>
      </trkpt>
      <trkpt lat="46.95755" lon="-0.29216">
        <ele>101</ele>
        <time>2012-05-19T14:41:36Z</time>
      </trkpt>
      <trkpt lat="46.95758" lon="-0.29197">
        <ele>102</ele>
        <time>2012-05-19T14:41:40Z</time>
      </trkpt>
      <trkpt lat="46.95762" lon="-0.29174">
        <ele>100</ele>
        <time>2012-05-19T14:41:44Z</time>
      </trkpt>
      <trkpt lat="46.9577" lon="-0.29152">
        <ele>99</ele>
        <time>2012-05-19T14:41:48Z</time>
      </trkpt>
      <trkpt lat="46.95775" lon="-0.2913">
        <ele>104</ele>
        <time>2012-05-19T14:41:52Z</time>
      </trkpt>
      <trkpt lat="46.95778" lon="-0.29108">
        <ele>101</ele>
        <time>2012-05-19T14:41:56Z</time>
      </trkpt>
      <trkpt lat="46.95786" lon="-0.29084">
        <ele>99</ele>
        <time>2012-05-19T14:42:00Z</time>
      </trkpt>
      <trkpt lat="46.95784" lon="-0.2908">
        <ele>98</ele>
        <time>2012-05-19T14:42:04Z</time>
      </trkpt>
      <trkpt lat="46.95781" lon="-0.29076">
        <ele>100</ele>
        <time>2012-05-19T14:42:08Z</time>
      </trkpt>
      <trkpt lat="46.95778" lon="-0.29063">
        <ele>99</ele>
        <time>2012-05-19T14:42:12Z</time>
      </trkpt>
      <trkpt lat="46.95771" lon="-0.29047">
        <ele>102</ele>
        <time>2012-05-19T14:42:16Z</time>
      </trkpt>
      <trkpt lat="46.95766" lon="-0.29028">
        <ele>102</ele>
        <time>2012-05-19T14:42:20Z</time>
      </trkpt>
      <trkpt lat="46.95762" lon="-0.29017">
        <ele>99</ele>
        <time>2012-05-19T14:42:24Z</time>
      </trkpt>
      <trkpt lat="46.9577" lon="-0.29005">
        <ele>98</ele>
        <time>2012-05-19T14:42:28Z</time>
      </trkpt>
    </trkseg>
  </trk>
</gpx>